createdAt,value
2018-05-21T00:01:07.648Z,99.90
2018-05-21T00:03:35.132Z,99.90
2018-05-21T00:06:03.363Z,99.90
2018-05-21T00:08:30.824Z,99.90
2018-05-21T00:10:58.312Z,99.90
2018-05-21T00:13:25.783Z,99.90
2018-05-21T00:15:54.776Z,99.80
2018-05-21T00:18:23.005Z,99.50
2018-05-21T00:20:50.497Z,99.50
2018-05-21T00:23:17.968Z,99.90
2018-05-21T00:25:46.215Z,99.60
2018-05-21T00:28:13.683Z,99.60
2018-05-21T00:30:41.164Z,99.30
2018-05-21T00:33:08.629Z,99.20
2018-05-21T00:35:36.880Z,99.60
2018-05-21T00:38:04.356Z,99.60
2018-05-21T00:40:32.595Z,99.70
2018-05-21T00:43:00.080Z,99.80
2018-05-21T00:45:27.547Z,99.20
2018-05-21T00:47:55.801Z,98.50
2018-05-21T00:50:23.305Z,98.10
2018-05-21T00:52:51.541Z,97.40
2018-05-21T00:55:30.904Z,97.30
2018-05-21T00:57:59.153Z,95.90
2018-05-21T01:00:26.628Z,95.80
2018-05-21T01:02:54.181Z,95.20
2018-05-21T01:05:21.576Z,95.00
2018-05-21T01:07:49.056Z,94.80
2018-05-21T01:10:16.519Z,94.80
2018-05-21T01:12:44.016Z,94.80
2018-05-21T01:15:11.484Z,94.50
2018-05-21T01:17:39.737Z,94.10
2018-05-21T01:20:07.212Z,94.10
2018-05-21T01:22:35.471Z,94.00
2018-05-21T01:25:02.954Z,94.00
2018-05-21T01:27:31.190Z,94.40
2018-05-21T01:29:58.673Z,94.40
2018-05-21T01:32:26.139Z,94.60
2018-05-21T01:34:53.615Z,94.40
2018-05-21T01:37:21.847Z,93.90
2018-05-21T01:39:49.330Z,93.90
2018-05-21T01:42:17.608Z,93.20
2018-05-21T01:44:45.091Z,93.20
2018-05-21T01:47:12.556Z,93.30
2018-05-21T01:49:40.078Z,93.10
2018-05-21T01:52:07.564Z,93.70
2018-05-21T01:54:35.820Z,93.00
2018-05-21T01:57:04.048Z,93.50
2018-05-21T01:59:31.544Z,93.20
2018-05-21T02:01:59.008Z,93.30
2018-05-21T02:04:28.004Z,93.40
2018-05-21T02:06:56.250Z,93.70
2018-05-21T02:09:23.723Z,93.40
2018-05-21T02:11:51.217Z,93.30
2018-05-21T02:14:19.456Z,93.80
2018-05-21T02:16:46.936Z,93.70
2018-05-21T02:19:15.170Z,94.10
2018-05-21T02:21:42.665Z,94.10
2018-05-21T02:24:10.133Z,94.10
2018-05-21T02:26:38.379Z,94.00
2018-05-21T02:29:05.846Z,93.90
2018-05-21T02:31:33.328Z,94.00
2018-05-21T02:34:01.575Z,94.20
2018-05-21T02:36:29.053Z,94.50
2018-05-21T02:38:57.372Z,94.40
2018-05-21T02:41:24.860Z,94.40
2018-05-21T02:43:52.339Z,95.00
2018-05-21T02:46:19.871Z,94.70
2018-05-21T02:48:47.339Z,94.90
2018-05-21T02:51:14.832Z,95.00
2018-05-21T02:53:43.076Z,95.40
2018-05-21T02:56:10.551Z,95.40
2018-05-21T02:58:38.028Z,95.20
2018-05-21T03:01:06.263Z,95.00
2018-05-21T03:03:33.746Z,95.00
2018-05-21T03:06:01.988Z,95.20
2018-05-21T03:08:29.461Z,95.40
2018-05-21T03:10:56.923Z,95.60
2018-05-21T03:13:24.404Z,95.70
2018-05-21T03:15:52.641Z,95.80
2018-05-21T03:18:20.125Z,95.80
2018-05-21T03:20:49.110Z,95.80
2018-05-21T03:23:16.593Z,95.80
2018-05-21T03:25:44.831Z,95.20
2018-05-21T03:28:12.320Z,95.20
2018-05-21T03:30:40.560Z,95.00
2018-05-21T03:33:08.044Z,95.00
2018-05-21T03:35:35.514Z,94.90
2018-05-21T03:38:03.752Z,94.00
2018-05-21T03:40:31.228Z,94.00
2018-05-21T03:42:58.723Z,93.20
2018-05-21T03:45:26.960Z,93.30
2018-05-21T03:47:54.422Z,93.30
2018-05-21T03:50:21.899Z,93.20
2018-05-21T03:52:50.151Z,93.30
2018-05-21T03:55:17.628Z,93.30
2018-05-21T03:57:45.092Z,93.30
2018-05-21T04:00:25.284Z,93.50
2018-05-21T04:03:04.831Z,93.50
2018-05-21T04:05:32.308Z,93.40
2018-05-21T09:18:16.116Z,85.60
2018-05-21T09:20:43.609Z,85.20
2018-05-21T09:23:11.841Z,85.50
2018-05-21T09:25:39.319Z,85.50
2018-05-21T09:28:06.800Z,85.00
2018-05-21T09:30:35.048Z,84.50
2018-05-21T09:33:02.565Z,84.40
2018-05-21T09:35:30.048Z,83.70
2018-05-21T09:37:57.515Z,83.60
2018-05-21T09:40:24.990Z,83.30
2018-05-21T09:42:52.487Z,81.80
2018-05-21T09:45:19.989Z,81.20
2018-05-21T09:47:47.460Z,80.60
2018-05-21T09:50:16.487Z,81.50
2018-05-21T09:52:43.964Z,80.80
2018-05-21T09:55:11.466Z,80.70
2018-05-21T09:57:38.959Z,80.00
2018-05-21T10:00:06.456Z,80.00
2018-05-21T10:02:33.956Z,79.10
2018-05-21T10:05:02.216Z,78.40
2018-05-21T10:07:29.711Z,78.20
2018-05-21T10:09:57.177Z,78.20
2018-05-21T10:12:24.664Z,75.60
2018-05-21T10:14:52.124Z,74.60
2018-05-21T10:17:19.616Z,74.90
2018-05-21T10:19:47.078Z,72.60
2018-05-21T10:22:14.560Z,72.10
2018-05-21T10:24:42.056Z,71.30
2018-05-21T10:27:09.563Z,70.80
2018-05-21T10:29:37.813Z,70.60
2018-05-21T10:32:05.304Z,70.60
2018-05-21T10:34:33.553Z,69.20
2018-05-21T10:37:01.118Z,69.10
2018-05-21T10:39:28.565Z,68.00
2018-05-21T10:41:56.044Z,66.40
2018-05-21T10:44:24.332Z,66.40
2018-05-21T10:46:52.576Z,65.00
2018-05-21T10:49:20.078Z,64.90
2018-05-21T10:51:47.540Z,64.20
2018-05-21T10:54:15.021Z,63.60
2018-05-21T10:56:42.483Z,62.60
2018-05-21T10:59:09.980Z,62.10
2018-05-21T11:01:37.459Z,63.30
2018-05-21T11:04:04.956Z,62.20
2018-05-21T11:06:32.441Z,61.90
2018-05-21T11:08:59.928Z,61.50
2018-05-21T11:11:28.174Z,60.20
2018-05-21T11:13:55.659Z,60.00
2018-05-21T11:16:23.918Z,58.80
2018-05-21T11:18:51.395Z,58.80
2018-05-21T11:21:19.672Z,58.00
2018-05-21T11:23:47.907Z,57.30
2018-05-21T11:26:15.408Z,57.30
2018-05-21T11:28:43.647Z,56.80
2018-05-21T11:31:11.132Z,56.80
2018-05-21T11:33:38.604Z,56.40
2018-05-21T11:36:06.913Z,55.90
2018-05-21T11:38:34.364Z,55.80
2018-05-21T11:41:01.861Z,55.90
2018-05-21T11:43:29.350Z,55.70
2018-05-21T11:45:57.595Z,56.60
2018-05-21T11:48:25.069Z,56.10
2018-05-21T11:50:52.552Z,56.40
2018-05-21T11:53:20.782Z,55.20
2018-05-21T11:55:48.287Z,55.10
2018-05-21T11:58:16.532Z,55.20
2018-05-21T12:00:44.024Z,55.10
2018-05-21T12:03:12.276Z,55.20
2018-05-21T12:05:39.758Z,55.20
2018-05-21T12:08:07.991Z,54.50
2018-05-21T12:10:35.480Z,54.40
2018-05-21T12:13:03.713Z,54.20
2018-05-21T12:15:31.203Z,54.20
2018-05-21T12:17:58.692Z,54.50
2018-05-21T12:20:26.161Z,53.10
2018-05-21T12:22:53.649Z,52.00
2018-05-21T12:25:21.129Z,51.80
2018-05-21T12:27:48.625Z,52.90
2018-05-21T12:30:16.117Z,50.90
2018-05-21T12:32:43.600Z,50.80
2018-05-21T12:35:11.068Z,51.40
2018-05-21T12:37:38.552Z,51.10
2018-05-21T12:40:06.028Z,50.40
2018-05-21T12:42:33.549Z,50.10
2018-05-21T12:45:01.792Z,50.40
2018-05-21T12:47:29.282Z,50.30
2018-05-21T12:49:57.540Z,50.10
2018-05-21T12:52:25.018Z,50.00
2018-05-21T12:54:52.488Z,50.80
2018-05-21T12:57:20.728Z,49.20
2018-05-21T12:59:48.207Z,49.10
2018-05-21T13:02:15.679Z,48.00
2018-05-21T13:04:43.942Z,48.30
2018-05-21T13:07:11.413Z,48.30
2018-05-21T13:09:39.651Z,46.40
2018-05-21T13:12:07.191Z,46.30
2018-05-21T13:14:34.713Z,46.30
2018-05-21T13:17:02.207Z,45.60
2018-05-21T13:19:29.687Z,45.40
2018-05-21T13:21:57.184Z,46.30
2018-05-21T13:24:25.468Z,46.20
2018-05-21T13:26:52.957Z,46.20
2018-05-21T13:29:20.515Z,47.00
2018-05-21T13:31:48.005Z,47.30
2018-05-21T13:34:15.488Z,46.90
2018-05-21T13:36:43.792Z,46.60
2018-05-21T13:39:11.292Z,46.50
2018-05-21T13:41:38.872Z,46.10
2018-05-21T13:44:06.352Z,45.80
2018-05-21T13:46:34.624Z,45.50
2018-05-21T13:49:02.879Z,45.30
2018-05-21T13:51:31.156Z,44.70
2018-05-21T13:53:58.647Z,44.60
2018-05-21T13:56:26.156Z,44.20
2018-05-21T13:58:53.643Z,44.80
2018-05-21T14:01:21.119Z,44.80
2018-05-21T14:03:49.364Z,46.00
2018-05-21T14:06:16.884Z,46.00
2018-05-21T14:08:44.353Z,46.30
2018-05-21T14:11:11.856Z,46.60
2018-05-21T14:13:39.332Z,46.50
2018-05-21T14:16:07.587Z,46.40
2018-05-21T14:18:35.056Z,46.40
2018-05-21T14:21:03.314Z,47.50
2018-05-21T14:23:30.784Z,47.50
2018-05-21T14:25:58.247Z,47.20
2018-05-21T14:28:26.532Z,46.50
2018-05-21T14:30:54.791Z,46.30
2018-05-21T14:33:22.267Z,46.30
2018-05-21T14:35:50.500Z,46.40
2018-05-21T14:38:17.988Z,46.30
2018-05-21T14:40:45.456Z,46.10
2018-05-21T14:43:13.710Z,47.10
2018-05-21T14:45:41.206Z,47.10
2018-05-21T14:48:08.696Z,47.50
2018-05-21T14:50:36.200Z,47.10
2018-05-21T14:53:04.522Z,47.40
2018-05-21T14:55:32.004Z,47.40
2018-05-21T14:57:59.500Z,47.20
2018-05-21T15:00:27.743Z,47.20
2018-05-21T15:02:55.224Z,47.20
2018-05-21T15:05:22.713Z,47.60
2018-05-21T15:07:50.189Z,46.90
2018-05-21T15:10:17.684Z,46.70
2018-05-21T15:12:45.152Z,46.80
2018-05-21T15:15:12.652Z,47.70
2018-05-21T15:17:40.141Z,47.50
2018-05-21T15:20:07.649Z,46.90
2018-05-21T15:22:35.888Z,47.10
2018-05-21T15:25:03.373Z,47.10
2018-05-21T15:27:31.633Z,47.10
2018-05-21T15:29:59.113Z,47.10
2018-05-21T15:32:27.356Z,46.80
2018-05-21T15:34:54.840Z,46.70
2018-05-21T15:37:22.347Z,47.40
2018-05-21T15:39:49.854Z,47.90
2018-05-21T15:42:17.321Z,47.10
2018-05-21T15:44:45.556Z,47.10
2018-05-21T15:47:13.040Z,47.10
2018-05-21T15:49:40.516Z,47.80
2018-05-21T15:52:08.764Z,48.60
2018-05-21T15:54:36.243Z,48.60
2018-05-21T15:57:04.562Z,49.00
2018-05-21T15:59:32.036Z,48.90
2018-05-21T16:01:59.527Z,49.50
2018-05-21T16:04:27.000Z,49.00
2018-05-21T16:06:55.255Z,48.90
2018-05-21T16:09:22.728Z,48.90
2018-05-21T16:11:50.210Z,49.10
2018-05-21T16:14:18.448Z,49.30
2018-05-21T16:16:45.933Z,49.20
2018-05-21T16:19:14.164Z,49.30
2018-05-21T16:21:41.654Z,49.30
2018-05-21T16:24:09.134Z,49.00
2018-05-21T16:26:37.368Z,49.40
2018-05-21T16:29:04.844Z,49.30
2018-05-21T16:31:32.465Z,49.30
2018-05-21T16:33:59.950Z,49.50
2018-05-21T16:36:27.412Z,49.40
2018-05-21T16:38:54.911Z,49.60
2018-05-21T16:41:22.435Z,49.30
2018-05-21T16:43:49.924Z,49.00
2018-05-21T16:46:18.163Z,49.30
2018-05-21T16:48:45.682Z,49.40
2018-05-21T16:51:13.172Z,48.50
2018-05-21T16:53:40.654Z,48.00
2018-05-21T16:56:08.156Z,48.20
2018-05-21T16:58:35.641Z,47.80
2018-05-21T17:01:03.117Z,47.50
2018-05-21T17:03:30.628Z,47.90
2018-05-21T17:05:58.113Z,48.00
2018-05-21T17:08:25.575Z,48.00
2018-05-21T17:10:53.128Z,48.30
2018-05-21T17:13:20.603Z,48.60
2018-05-21T17:15:48.096Z,48.30
2018-05-21T17:18:16.352Z,48.50
2018-05-21T17:20:43.832Z,48.50
2018-05-21T17:23:12.080Z,48.90
2018-05-21T17:25:39.594Z,48.80
2018-05-21T17:28:07.055Z,48.60
2018-05-21T17:30:34.540Z,48.60
2018-05-21T17:33:02.013Z,49.00
2018-05-21T17:35:29.615Z,49.00
2018-05-21T17:37:56.988Z,49.10
2018-05-21T17:40:24.479Z,49.00
2018-05-21T17:42:51.958Z,49.20
2018-05-21T17:45:19.456Z,49.40
2018-05-21T17:47:46.931Z,49.60
2018-05-21T17:50:14.482Z,49.70
2018-05-21T17:52:41.972Z,49.80
2018-05-21T17:55:09.436Z,50.00
2018-05-21T17:57:36.974Z,50.50
2018-05-21T18:00:04.543Z,50.30
2018-05-21T18:02:31.949Z,50.70
2018-05-21T18:04:59.436Z,51.00
2018-05-21T18:07:26.924Z,51.60
2018-05-21T18:09:54.410Z,51.30
2018-05-21T18:12:22.663Z,51.70
2018-05-21T18:14:50.152Z,51.70
2018-05-21T18:17:18.420Z,52.20
2018-05-21T18:19:46.659Z,52.20
2018-05-21T18:22:14.147Z,52.10
2018-05-21T18:24:41.624Z,52.20
2018-05-21T18:27:09.883Z,52.40
2018-05-21T18:29:38.142Z,52.80
2018-05-21T18:32:05.612Z,52.70
2018-05-21T18:34:33.095Z,52.70
2018-05-21T18:37:01.369Z,53.10
2018-05-21T18:39:29.628Z,53.40
2018-05-21T18:41:57.134Z,53.30
2018-05-21T18:44:24.672Z,53.30
2018-05-21T18:46:52.891Z,53.60
2018-05-21T18:49:20.387Z,53.50
2018-05-21T18:51:48.637Z,53.80
2018-05-21T18:54:16.144Z,53.70
2018-05-21T18:56:44.388Z,53.80
2018-05-21T18:59:11.867Z,53.80
2018-05-21T19:01:40.144Z,54.50
2018-05-21T19:04:08.384Z,54.80
2018-05-21T19:06:35.875Z,54.70
2018-05-21T19:09:04.160Z,55.10
2018-05-21T19:11:32.394Z,55.30
2018-05-21T19:13:59.885Z,55.30
2018-05-21T19:16:28.160Z,55.50
2018-05-21T19:18:56.411Z,55.60
2018-05-21T19:21:23.891Z,55.60
2018-05-21T19:23:51.366Z,55.60
2018-05-21T19:26:19.617Z,55.90
2018-05-21T19:28:47.086Z,55.90
2018-05-21T19:31:15.351Z,56.10
2018-05-21T19:33:42.831Z,56.00
2018-05-21T19:36:11.119Z,56.40
2018-05-21T19:38:38.594Z,56.30
2018-05-21T19:41:06.136Z,56.50
2018-05-21T19:43:34.370Z,57.00
2018-05-21T19:46:01.861Z,57.00
2018-05-21T19:48:30.111Z,57.50
2018-05-21T19:50:58.376Z,57.70
2018-05-21T19:53:25.839Z,57.70
2018-05-21T19:55:53.667Z,57.80
2018-05-21T19:58:21.164Z,57.90
2018-05-21T20:00:48.715Z,58.00
2018-05-21T20:03:16.229Z,58.10
2018-05-21T20:05:44.460Z,58.20
2018-05-21T20:08:11.980Z,58.10
2018-05-21T20:10:39.456Z,58.40
2018-05-21T20:13:07.012Z,58.50
2018-05-21T20:15:34.529Z,58.70
2018-05-21T20:18:02.798Z,58.60
2018-05-21T20:20:41.883Z,58.80
2018-05-21T20:23:09.375Z,58.80
2018-05-21T20:25:36.832Z,58.80
2018-05-21T20:28:04.343Z,58.70
2018-05-21T20:30:31.832Z,59.00
2018-05-21T20:32:59.319Z,58.90
2018-05-21T20:35:27.574Z,59.50
2018-05-21T20:37:55.062Z,59.30
2018-05-21T20:40:23.313Z,59.90
2018-05-21T20:42:50.804Z,59.70
2018-05-21T20:45:18.375Z,59.90
2018-05-21T20:47:45.761Z,60.10
2018-05-21T20:50:13.258Z,60.70
2018-05-21T20:52:40.723Z,60.70
2018-05-21T20:55:08.978Z,61.50
2018-05-21T20:57:36.466Z,61.40
2018-05-21T21:00:04.794Z,61.90
2018-05-21T21:02:32.292Z,61.90
2018-05-21T21:05:00.584Z,62.40
2018-05-21T21:07:28.814Z,63.10
2018-05-21T21:09:56.304Z,63.00
2018-05-21T21:12:23.787Z,62.90
2018-05-21T21:14:51.289Z,63.20
2018-05-21T21:17:18.795Z,63.20
2018-05-21T21:19:47.043Z,63.90
2018-05-21T21:22:14.611Z,63.90
2018-05-21T21:24:42.093Z,64.20
2018-05-21T21:27:10.354Z,64.50
2018-05-21T21:29:38.593Z,64.70
2018-05-21T21:32:06.075Z,64.70
2018-05-21T21:34:33.554Z,64.80
2018-05-21T21:37:01.821Z,65.00
2018-05-21T21:39:30.083Z,65.40
2018-05-21T21:41:57.593Z,65.40
2018-05-21T21:44:25.067Z,65.60
2018-05-21T21:46:52.550Z,65.60
2018-05-21T21:49:20.034Z,66.00
2018-05-21T21:51:48.287Z,67.50
2018-05-21T21:54:15.756Z,66.80
2018-05-21T21:56:43.244Z,66.70
2018-05-21T21:59:11.475Z,67.30
2018-05-21T22:01:38.973Z,67.30
2018-05-21T22:04:07.252Z,67.60
2018-05-21T22:06:35.512Z,68.20
2018-05-21T22:09:03.756Z,68.20
2018-05-21T22:11:31.248Z,68.20
2018-05-21T22:13:59.487Z,68.90
2018-05-21T22:16:26.961Z,68.80
2018-05-21T22:18:54.443Z,69.40
2018-05-21T22:21:22.681Z,69.90
2018-05-21T22:23:50.169Z,69.90
2018-05-21T22:26:18.412Z,71.00
2018-05-21T22:28:45.903Z,71.00
2018-05-21T22:31:13.383Z,71.30
2018-05-21T22:33:41.648Z,71.90
2018-05-21T22:36:09.883Z,72.00
2018-05-21T22:38:37.364Z,72.00
2018-05-21T22:41:04.832Z,72.00
2018-05-21T22:43:32.312Z,71.90
2018-05-21T22:46:00.550Z,72.50
2018-05-21T22:48:28.029Z,72.50
2018-05-21T22:50:56.284Z,73.00
2018-05-21T22:53:23.778Z,72.90
2018-05-21T22:55:52.012Z,72.80
2018-05-21T22:58:19.491Z,72.70
2018-05-21T23:00:46.972Z,72.50
2018-05-21T23:03:15.208Z,73.10
2018-05-21T23:05:43.472Z,72.20
2018-05-21T23:08:10.953Z,72.60
2018-05-21T23:10:39.204Z,72.60
2018-05-21T23:13:06.683Z,72.50
2018-05-21T23:15:34.200Z,72.40
2018-05-21T23:18:01.699Z,72.60
2018-05-21T23:20:29.175Z,73.00
2018-05-21T23:22:56.648Z,73.50
2018-05-21T23:25:24.908Z,75.80
2018-05-21T23:27:52.367Z,75.80
2018-05-21T23:30:20.620Z,79.90
2018-05-21T23:32:48.101Z,79.10
2018-05-21T23:35:15.600Z,79.50
2018-05-21T23:37:43.073Z,81.70
2018-05-21T23:40:10.547Z,83.60
2018-05-21T23:42:38.024Z,85.00
2018-05-21T23:45:05.496Z,90.60
2018-05-21T23:47:33.744Z,94.50
2018-05-21T23:50:01.211Z,94.50
2018-05-21T23:52:28.699Z,97.50
2018-05-21T23:54:56.926Z,99.90
2018-05-21T23:57:24.408Z,99.90
2018-05-21T23:59:51.873Z,99.90
